Time;durP1;ratioP1;P1;durP2;ratioP2;P2;SDS_P1;SDS_P2;PMS_P1;PMS_P2;Temp;Humidity;BMP_temperature;BMP_pressure;BME280_temperature;BME280_humidity;BME280_pressure;Samples;Min_cycle;Max_cycle;Signal;HPM_P1;HPM_P2
2022/03/14 00:01:21;;;;;;;23.58;15.10;;;;;;;10.21;38.01;100715.94;4198902;28;20040;-60
2022/03/14 00:03:27;;;;;;;22.08;15.43;;;;;;;10.22;38.22;100733.28;4196877;28;20068;-60
2022/03/14 00:05:31;;;;;;;24.50;15.35;;;;;;;10.21;38.29;100728.91;4198990;28;20049;-60
2022/03/14 00:07:36;;;;;;;22.27;14.10;;;;;;;10.21;37.91;100733.25;4198846;28;20080;-60
2022/03/14 00:09:38;;;;;;;18.75;13.07;;;;;;;10.36;37.69;100733.56;4185179;28;20096;-60
2022/03/14 00:11:41;;;;;;;19.98;12.55;;;;;;;10.35;37.70;100742.19;4190645;28;20071;-60
2022/03/14 00:13:47;;;;;;;18.70;13.80;;;;;;;10.40;37.62;100742.31;4197996;28;20495;-60
2022/03/14 00:15:50;;;;;;;18.60;15.02;;;;;;;10.48;37.60;100740.72;4180783;28;20057;-59
2022/03/14 00:17:53;;;;;;;18.33;12.30;;;;;;;10.55;37.42;100750.38;4197892;28;20512;-59
2022/03/14 00:20:04;;;;;;;21.75;13.18;;;;;;;10.64;36.88;100749.69;4195303;28;20498;-59
2022/03/14 00:22:07;;;;;;;20.63;13.02;;;;;;;10.69;37.44;100752.38;4166845;28;20475;-59
2022/03/14 00:24:16;;;;;;;22.35;14.20;;;;;;;10.77;37.15;100751.66;4192244;28;20037;-60
2022/03/14 00:26:22;;;;;;;24.70;16.45;;;;;;;11.00;36.78;100748.59;4186547;28;20060;-60
2022/03/14 00:28:25;;;;;;;27.73;15.55;;;;;;;11.04;36.68;100749.50;4193728;28;20048;-60
2022/03/14 00:30:33;;;;;;;23.77;15.30;;;;;;;10.97;37.09;100744.22;4198450;28;20041;-59
2022/03/14 00:32:36;;;;;;;20.98;15.35;;;;;;;10.89;36.59;100744.94;4181981;28;20044;-60
2022/03/14 00:34:39;;;;;;;19.42;13.55;;;;;;;10.82;36.60;100765.63;4193107;28;20040;-60
2022/03/14 00:36:43;;;;;;;18.13;12.55;;;;;;;10.78;37.46;100784.63;4196369;28;20044;-60
2022/03/14 00:38:46;;;;;;;27.30;17.73;;;;;;;10.60;37.83;100799.88;4172798;28;20045;-60
2022/03/14 00:40:51;;;;;;;24.77;17.35;;;;;;;10.32;38.33;100804.47;4197510;28;20383;-60
2022/03/14 00:42:53;;;;;;;36.92;17.20;;;;;;;10.17;38.74;100817.16;4197156;28;20041;-60
2022/03/14 00:44:56;;;;;;;26.05;15.73;;;;;;;10.11;38.97;100825.69;4188201;28;20400;-60
2022/03/14 00:46:59;;;;;;;35.88;20.70;;;;;;;10.10;39.14;100830.03;4198018;28;20103;-60
2022/03/14 00:49:02;;;;;;;28.90;18.48;;;;;;;10.17;39.49;100846.59;4197183;28;20407;-60
2022/03/14 00:51:05;;;;;;;22.92;15.98;;;;;;;10.27;39.25;100847.69;4181355;28;20041;-61
2022/03/14 00:53:09;;;;;;;24.52;15.23;;;;;;;10.38;39.65;100850.56;4196209;28;20059;-59
2022/03/14 00:55:12;;;;;;;22.70;13.88;;;;;;;10.38;40.38;100859.25;4193492;28;21166;-60
2022/03/14 00:57:15;;;;;;;19.05;13.77;;;;;;;10.38;40.52;100866.13;4179845;28;20041;-60
2022/03/14 00:59:18;;;;;;;24.40;16.50;;;;;;;10.35;40.01;100868.69;4196130;28;20045;-60
2022/03/14 01:01:21;;;;;;;22.58;14.90;;;;;;;10.43;40.13;100874.94;4196947;28;20099;-60
2022/03/14 01:03:23;;;;;;;25.67;15.18;;;;;;;10.37;40.00;100888.66;4196209;28;20048;-60
2022/03/14 01:05:26;;;;;;;26.67;17.88;;;;;;;10.40;39.70;100885.25;4194883;28;20037;-60
2022/03/14 01:07:29;;;;;;;23.52;16.33;;;;;;;10.49;40.24;100885.44;4181407;28;20037;-60
2022/03/14 01:09:34;;;;;;;28.58;17.48;;;;;;;10.57;40.36;100883.91;4192302;28;20040;-59
2022/03/14 01:11:37;;;;;;;37.25;23.52;;;;;;;10.55;40.36;100892.50;4188869;28;20041;-60
2022/03/14 01:13:40;;;;;;;25.63;17.85;;;;;;;10.59;41.18;100907.34;4191478;28;20075;-60
2022/03/14 01:15:43;;;;;;;19.92;14.73;;;;;;;10.60;41.81;100914.25;4193337;28;20045;-60
2022/03/14 01:17:46;;;;;;;19.98;14.80;;;;;;;10.56;42.52;100908.13;4191026;28;20095;-60
2022/03/14 01:19:49;;;;;;;28.95;21.08;;;;;;;10.54;43.63;100922.84;4180956;28;20049;-60
2022/03/14 01:21:52;;;;;;;22.80;16.95;;;;;;;10.53;44.58;100928.88;4182610;28;20135;-60
2022/03/14 01:23:54;;;;;;;27.45;18.08;;;;;;;10.51;44.65;100934.88;4194010;28;20041;-60
2022/03/14 01:25:58;;;;;;;21.40;15.18;;;;;;;10.45;44.17;100931.31;4181570;28;20049;-59
2022/03/14 01:28:02;;;;;;;22.13;15.13;;;;;;;10.44;43.49;100942.53;4188661;28;20036;-60
2022/03/14 01:30:06;;;;;;;20.50;15.17;;;;;;;10.43;44.42;100953.78;4196450;28;20434;-60
2022/03/14 01:32:10;;;;;;;24.77;16.60;;;;;;;10.42;44.06;100959.81;4196068;28;20048;-59
2022/03/14 01:34:14;;;;;;;;;;;;;;;10.24;41.93;100961.97;4193461;28;20048;-60
2022/03/14 01:36:18;;;;;;;26.35;18.25;;;;;;;10.24;41.79;100967.16;4183848;28;19924;-59
2022/03/14 01:38:20;;;;;;;24.13;16.15;;;;;;;10.18;42.98;100974.78;4194182;28;20040;-60
2022/03/14 01:40:24;;;;;;;20.80;15.02;;;;;;;10.33;45.84;100974.28;4191107;28;20043;-60
2022/03/14 01:42:28;;;;;;;14.17;9.37;;;;;;;10.39;51.74;100983.13;4193844;28;20048;-60
2022/03/14 01:44:31;;;;;;;13.55;7.53;;;;;;;10.46;56.36;100997.16;4188383;28;20298;-59
2022/03/14 01:46:35;;;;;;;7.65;5.65;;;;;;;10.54;57.58;100999.94;4191962;28;20044;-60
2022/03/14 01:48:37;;;;;;;9.20;6.93;;;;;;;10.58;56.68;101009.56;4196697;28;20048;-59
2022/03/14 01:50:40;;;;;;;12.35;7.25;;;;;;;10.66;55.82;101018.44;4197101;28;20102;-60
2022/03/14 01:52:44;;;;;;;9.55;7.45;;;;;;;10.65;57.09;101021.88;4184834;28;20049;-61
2022/03/14 01:54:48;;;;;;;7.82;5.88;;;;;;;10.67;58.47;101024.50;4168636;28;20103;-60
2022/03/14 01:56:51;;;;;;;7.10;5.00;;;;;;;10.62;58.86;101033.06;4179049;28;20584;-60
2022/03/14 01:58:56;;;;;;;6.45;4.93;;;;;;;10.53;60.44;101031.97;4190642;28;20044;-60
2022/03/14 02:00:59;;;;;;;11.27;4.90;;;;;;;10.48;60.92;101039.66;4190993;28;20040;-60
2022/03/14 02:03:02;;;;;;;7.05;5.10;;;;;;;10.60;60.56;101039.06;4178069;28;20037;-60
2022/03/14 02:05:06;;;;;;;7.95;5.60;;;;;;;10.54;61.40;101038.94;4185877;28;20507;-60
2022/03/14 02:07:09;;;;;;;10.43;4.67;;;;;;;10.39;62.79;101036.84;4196686;28;20044;-60
2022/03/14 02:09:12;;;;;;;6.40;2.60;;;;;;;10.24;63.50;101051.19;4178837;28;20353;-59
2022/03/14 02:11:14;;;;;;;8.07;2.72;;;;;;;10.18;64.00;101051.03;4187894;28;20044;-61
2022/03/14 02:13:17;;;;;;;4.07;1.77;;;;;;;10.10;64.31;101056.03;4191693;28;20107;-62
2022/03/14 02:15:21;;;;;;;2.42;1.67;;;;;;;9.93;65.09;101071.19;4194261;28;20036;-61
2022/03/14 02:17:24;;;;;;;2.15;1.40;;;;;;;9.82;65.96;101075.19;4196399;28;20489;-61
2022/03/14 02:19:28;;;;;;;2.00;1.42;;;;;;;9.67;66.88;101078.25;4177381;28;20044;-61
2022/03/14 02:21:32;;;;;;;1.90;1.60;;;;;;;9.60;67.38;101084.13;4180292;28;20088;-61
2022/03/14 02:23:37;;;;;;;1.58;1.20;;;;;;;9.55;67.01;101080.50;4187247;28;20095;-61
2022/03/14 02:25:47;;;;;;;2.00;1.42;;;;;;;9.60;67.37;101092.75;4189223;28;20033;-60
2022/03/14 02:27:52;;;;;;;3.90;1.23;;;;;;;9.53;68.02;101089.97;4178774;28;20395;-61
2022/03/14 02:29:54;;;;;;;1.67;1.10;;;;;;;9.52;68.71;101091.69;4180271;28;20045;-61
2022/03/14 02:31:57;;;;;;;2.92;1.50;;;;;;;9.47;68.41;101087.19;4195725;28;20036;-60
2022/03/14 02:34:00;;;;;;;2.75;1.42;;;;;;;9.48;69.06;101086.38;4178100;28;20088;-60
2022/03/14 02:36:03;;;;;;;2.35;1.20;;;;;;;9.43;69.19;101089.72;4195562;28;20036;-60
2022/03/14 02:38:15;;;;;;;1.58;1.30;;;;;;;9.39;69.40;101087.84;4187725;28;20498;-60
2022/03/14 02:40:18;;;;;;;1.35;0.93;;;;;;;9.36;69.55;101092.06;4186042;28;20048;-61
2022/03/14 02:42:21;;;;;;;1.98;1.13;;;;;;;9.37;69.96;101089.50;4183036;28;20108;-61
2022/03/14 02:44:23;;;;;;;3.42;1.20;;;;;;;9.35;70.21;101087.72;4198337;28;20548;-60
2022/03/14 02:46:29;;;;;;;1.57;1.20;;;;;;;9.32;70.37;101085.91;4195491;28;20510;-61
2022/03/14 02:48:32;;;;;;;2.63;0.90;;;;;;;9.30;70.78;101095.38;4187289;28;20042;-61
2022/03/14 02:50:35;;;;;;;2.53;1.10;;;;;;;9.32;70.96;101098.88;4182195;28;20041;-60
2022/03/14 02:52:41;;;;;;;1.38;1.27;;;;;;;9.26;71.45;101101.31;4195681;28;20131;-60
2022/03/14 02:54:45;;;;;;;3.65;1.42;;;;;;;9.38;71.35;101106.84;4181656;28;20049;-60
2022/03/14 02:56:48;;;;;;;2.50;1.35;;;;;;;9.49;71.13;101119.25;4182843;28;20044;-61
2022/03/14 02:58:52;;;;;;;2.45;1.20;;;;;;;9.59;70.93;101134.25;4193112;28;20044;-60
2022/03/14 03:00:55;;;;;;;2.20;1.20;;;;;;;9.63;70.65;101149.09;4198927;28;20045;-60
2022/03/14 03:02:59;;;;;;;2.70;1.10;;;;;;;9.55;70.85;101155.75;4180678;28;20045;-61
2022/03/14 03:05:05;;;;;;;3.13;1.95;;;;;;;9.52;71.16;101160.88;4190492;28;20502;-60
2022/03/14 03:07:08;;;;;;;4.05;2.60;;;;;;;9.53;71.07;101163.50;4195366;28;20040;-61
2022/03/14 03:09:10;;;;;;;4.10;2.50;;;;;;;9.55;70.96;101160.97;4198927;28;20103;-60
2022/03/14 03:11:14;;;;;;;4.85;3.00;;;;;;;9.46;71.35;101165.88;4199560;28;20040;-61
2022/03/14 03:13:19;;;;;;;7.20;3.67;;;;;;;9.39;71.00;101167.44;4174842;28;20092;-61
2022/03/14 03:15:22;;;;;;;4.40;2.97;;;;;;;9.43;71.37;101166.66;4195933;28;20337;-60
2022/03/14 03:17:25;;;;;;;5.70;3.10;;;;;;;9.47;71.44;101165.94;4199497;28;20051;-60
2022/03/14 03:19:29;;;;;;;8.73;4.20;;;;;;;9.58;71.65;101179.25;4194421;28;20033;-61
2022/03/14 03:21:34;;;;;;;6.82;4.95;;;;;;;9.62;71.57;101175.88;4198448;28;20086;-60
2022/03/14 03:23:37;;;;;;;10.55;5.32;;;;;;;9.63;71.59;101181.97;4197884;28;20120;-60
2022/03/14 03:25:42;;;;;;;7.47;5.47;;;;;;;9.67;71.54;101184.69;4186050;28;20026;-60
2022/03/14 03:27:46;;;;;;;5.38;3.90;;;;;;;9.68;71.16;101191.66;4185251;28;20033;-60
2022/03/14 03:29:50;;;;;;;6.55;5.03;;;;;;;9.66;71.08;101198.50;4195949;28;20044;-60
2022/03/14 03:31:53;;;;;;;7.55;6.10;;;;;;;9.68;71.32;101203.75;4194101;28;20048;-60
2022/03/14 03:33:55;;;;;;;6.50;5.90;;;;;;;9.68;71.49;101198.56;4188761;28;20051;-60
2022/03/14 03:35:58;;;;;;;6.35;3.67;;;;;;;9.66;71.52;101201.09;4189891;28;20032;-60
2022/03/14 03:38:01;;;;;;;8.77;4.93;;;;;;;9.67;71.58;101204.59;4199788;28;20056;-60
2022/03/14 03:40:05;;;;;;;3.53;2.80;;;;;;;9.64;71.68;101215.78;4196595;28;20079;-61
2022/03/14 03:42:08;;;;;;;3.08;2.20;;;;;;;9.60;71.76;101216.50;4181936;28;20114;-61
2022/03/14 03:44:14;;;;;;;4.47;1.95;;;;;;;9.59;71.68;101225.13;4165954;28;20041;-61
2022/03/14 03:46:17;;;;;;;4.43;1.65;;;;;;;9.55;71.75;101228.44;4183522;28;20037;-61
2022/03/14 03:48:20;;;;;;;2.45;1.48;;;;;;;9.55;72.05;101239.72;4194082;28;20064;-61
2022/03/14 03:50:23;;;;;;;3.25;1.25;;;;;;;9.56;72.05;101236.31;4196171;28;20052;-61
2022/03/14 03:52:26;;;;;;;1.83;1.10;;;;;;;9.55;72.10;101244.03;4197483;28;20107;-61
2022/03/14 03:54:29;;;;;;;2.53;1.30;;;;;;;9.58;72.08;101249.34;4180263;28;20048;-60
2022/03/14 03:56:34;;;;;;;2.40;1.50;;;;;;;9.56;72.28;101245.78;4196915;28;20067;-61
2022/03/14 03:58:37;;;;;;;1.90;1.60;;;;;;;9.60;71.96;101260.63;4182745;28;20041;-61
2022/03/14 04:00:41;;;;;;;2.45;1.25;;;;;;;9.56;72.04;101257.06;4195227;28;20457;-61
2022/03/14 04:02:44;;;;;;;;;;;;;;;9.41;72.61;101252.25;4198301;28;20445;-61
2022/03/14 04:04:47;;;;;;;1.38;1.20;;;;;;;9.44;71.93;101252.34;4193294;28;19920;-60
2022/03/14 04:06:56;;;;;;;1.33;1.20;;;;;;;9.45;72.22;101250.66;4192005;28;20099;-60
2022/03/14 04:09:01;;;;;;;1.38;1.20;;;;;;;9.44;72.22;101252.34;4182121;28;20068;-60
2022/03/14 04:11:06;;;;;;;1.60;1.40;;;;;;;9.49;72.22;101254.22;4191254;28;20082;-60
2022/03/14 04:13:10;;;;;;;2.88;1.20;;;;;;;9.50;71.89;101254.25;4179630;28;20151;-60
2022/03/14 04:15:13;;;;;;;1.83;1.38;;;;;;;9.51;71.78;101257.75;4184508;28;20053;-60
2022/03/14 04:17:17;;;;;;;5.10;2.10;;;;;;;9.47;72.17;101258.50;4182705;28;20040;-60
2022/03/14 04:19:19;;;;;;;2.00;1.77;;;;;;;9.38;72.12;101257.34;4189430;28;20044;-60
2022/03/14 04:21:23;;;;;;;4.28;1.60;;;;;;;9.45;72.52;101261.03;4187101;28;20295;-60
2022/03/14 04:23:28;;;;;;;4.47;1.60;;;;;;;9.43;71.93;101268.78;4185526;28;20055;-60
2022/03/14 04:25:33;;;;;;;2.22;1.27;;;;;;;9.37;72.03;101273.75;4180453;28;20084;-60
2022/03/14 04:27:42;;;;;;;1.55;1.30;;;;;;;9.33;72.30;101276.22;4197172;28;20486;-60
2022/03/14 04:29:46;;;;;;;1.77;1.48;;;;;;;9.37;72.48;101281.53;4172181;28;20072;-60
2022/03/14 04:31:48;;;;;;;2.33;1.70;;;;;;;9.41;72.53;101283.41;4194555;28;20063;-60
2022/03/14 04:33:53;;;;;;;2.90;1.50;;;;;;;9.44;72.12;101288.69;4178669;28;20099;-60
2022/03/14 04:35:56;;;;;;;1.70;1.42;;;;;;;9.35;71.99;101288.41;4192270;28;20062;-60
2022/03/14 04:37:58;;;;;;;1.75;1.42;;;;;;;9.33;71.67;101291.78;4195853;28;20040;-61
2022/03/14 04:40:01;;;;;;;1.60;1.30;;;;;;;9.23;72.55;101293.22;4198048;28;20036;-60
2022/03/14 04:42:05;;;;;;;1.58;1.30;;;;;;;9.22;71.98;101294.03;4196986;28;20123;-61
2022/03/14 04:44:07;;;;;;;1.35;1.20;;;;;;;9.15;72.57;101295.53;4197989;28;20494;-60
2022/03/14 04:46:10;;;;;;;3.60;1.52;;;;;;;9.15;72.76;101298.13;4187387;28;20048;-60
2022/03/14 04:48:13;;;;;;;1.65;1.33;;;;;;;9.18;72.84;101306.00;4197422;28;20055;-60
2022/03/14 04:50:17;;;;;;;2.08;1.58;;;;;;;9.19;72.49;101314.69;4194175;28;20082;-61
2022/03/14 04:52:21;;;;;;;1.27;1.17;;;;;;;9.14;72.25;101318.81;4186957;28;20059;-61
2022/03/14 04:54:29;;;;;;;1.58;1.20;;;;;;;9.13;72.27;101317.09;4181567;28;20049;-60
2022/03/14 04:56:32;;;;;;;1.40;1.30;;;;;;;9.00;73.06;101323.56;4185368;28;20561;-60
2022/03/14 04:58:35;;;;;;;1.90;1.40;;;;;;;8.99;72.64;101322.66;4183132;28;20049;-61
2022/03/14 05:00:37;;;;;;;1.40;1.25;;;;;;;8.90;73.04;101333.59;4188735;28;20495;-60
2022/03/14 05:02:41;;;;;;;2.13;1.50;;;;;;;8.89;72.93;101334.44;4187401;28;20131;-61
2022/03/14 05:04:43;;;;;;;3.08;1.92;;;;;;;8.79;73.65;101334.94;4190937;28;20506;-60
2022/03/14 05:06:47;;;;;;;2.30;1.85;;;;;;;8.76;73.14;101345.19;4197613;28;20091;-60
2022/03/14 05:08:50;;;;;;;3.53;1.95;;;;;;;8.77;73.39;101346.06;4196421;28;20498;-60
2022/03/14 05:10:53;;;;;;;3.80;2.38;;;;;;;8.70;73.55;101350.16;4192009;28;20056;-60
2022/03/14 05:12:59;;;;;;;5.15;3.30;;;;;;;8.64;73.42;101348.22;4180379;28;20420;-60
2022/03/14 05:15:01;;;;;;;3.53;2.97;;;;;;;8.78;72.85;101345.25;4179947;28;20045;-61
2022/03/14 05:17:05;;;;;;;3.83;3.05;;;;;;;8.74;73.52;101355.50;4176561;28;20049;-61
2022/03/14 05:19:08;;;;;;;8.18;3.95;;;;;;;8.60;73.36;101355.81;4194882;28;20032;-61
2022/03/14 05:21:13;;;;;;;8.05;4.40;;;;;;;8.55;73.56;101363.44;4173798;28;20045;-60
2022/03/14 05:23:17;;;;;;;7.95;3.80;;;;;;;8.65;73.13;101367.25;4187404;28;20068;-61
2022/03/14 05:25:20;;;;;;;4.30;3.30;;;;;;;8.73;72.97;101364.13;4197106;28;20109;-60
2022/03/14 05:27:23;;;;;;;6.63;4.30;;;;;;;8.84;72.43;101358.44;4197339;28;20114;-60
2022/03/14 05:29:27;;;;;;;3.63;2.80;;;;;;;8.88;72.41;101374.16;4197634;28;20119;-61
2022/03/14 05:31:31;;;;;;;4.75;4.18;;;;;;;8.93;72.69;101371.72;4189502;28;20045;-60
2022/03/14 05:33:34;;;;;;;6.90;3.85;;;;;;;8.89;72.60;101375.94;4194748;28;20477;-60
2022/03/14 05:35:37;;;;;;;3.92;3.35;;;;;;;8.96;72.40;101383.91;4196507;28;20040;-61
2022/03/14 05:37:40;;;;;;;4.97;3.60;;;;;;;8.93;72.71;101384.69;4195346;28;20095;-60
2022/03/14 05:39:45;;;;;;;10.07;5.00;;;;;;;9.03;72.55;101383.31;4181882;28;20087;-61
2022/03/14 05:41:47;;;;;;;5.60;3.60;;;;;;;9.03;73.06;101389.38;4182782;28;20041;-61
2022/03/14 05:43:50;;;;;;;4.85;4.35;;;;;;;9.07;72.71;101391.25;4189186;28;20103;-61
2022/03/14 05:45:53;;;;;;;3.03;2.58;;;;;;;9.05;72.43;101400.69;4167091;28;20435;-60
2022/03/14 05:47:55;;;;;;;2.85;2.45;;;;;;;9.06;72.29;101407.63;4180590;28;20080;-61
2022/03/14 05:49:58;;;;;;;5.90;3.65;;;;;;;9.16;71.93;101413.16;4180640;28;20451;-60
2022/03/14 05:52:01;;;;;;;5.50;3.33;;;;;;;9.20;71.97;101417.59;4173624;28;20052;-61
2022/03/14 05:54:04;;;;;;;3.45;2.17;;;;;;;9.21;71.87;101419.38;4195359;28;20517;-60
2022/03/14 05:56:08;;;;;;;2.30;1.80;;;;;;;9.21;71.46;101420.28;4185512;28;20086;-61
2022/03/14 05:58:12;;;;;;;2.85;1.70;;;;;;;9.19;71.77;101426.25;4192518;28;20043;-60
2022/03/14 06:00:24;;;;;;;4.68;2.13;;;;;;;9.19;71.82;101427.13;4162938;28;20050;-60
2022/03/14 06:02:29;;;;;;;3.22;1.90;;;;;;;9.17;71.54;101427.88;4194330;28;20040;-61
2022/03/14 06:04:32;;;;;;;3.40;2.00;;;;;;;9.15;71.60;101430.41;4195268;28;20051;-60
2022/03/14 06:06:35;;;;;;;1.73;1.45;;;;;;;9.20;71.84;101438.34;4181908;28;20078;-60
2022/03/14 06:08:38;;;;;;;3.28;1.60;;;;;;;9.12;71.12;101443.28;4173489;28;20478;-60
2022/03/14 06:10:43;;;;;;;2.00;1.20;;;;;;;9.03;71.16;101445.56;4180969;28;20041;-61
2022/03/14 06:12:47;;;;;;;2.47;1.70;;;;;;;8.92;71.58;101452.94;4190647;28;20095;-60
2022/03/14 06:14:52;;;;;;;2.08;1.35;;;;;;;8.81;71.38;101456.84;4191355;28;20041;-62
2022/03/14 06:16:55;;;;;;;2.40;1.42;;;;;;;8.69;72.17;101471.13;4199809;28;20383;-60
2022/03/14 06:18:58;;;;;;;3.00;1.60;;;;;;;8.71;71.77;101458.22;4186255;28;20051;-61
2022/03/14 06:21:00;;;;;;;4.55;1.35;;;;;;;8.61;72.06;101467.34;4179088;28;20049;-60
2022/03/14 06:23:03;;;;;;;3.60;1.70;;;;;;;8.62;71.58;101469.09;4190195;28;20041;-60
2022/03/14 06:25:07;;;;;;;6.43;2.33;;;;;;;8.58;71.20;101476.72;4196653;28;20047;-60
2022/03/14 06:27:09;;;;;;;9.88;4.30;;;;;;;8.57;71.21;101478.41;4197552;28;20446;-60
2022/03/14 06:29:14;;;;;;;9.30;3.97;;;;;;;8.49;71.67;101488.47;4199748;28;20106;-60
2022/03/14 06:31:18;;;;;;;6.13;3.47;;;;;;;8.56;71.36;101485.31;4195357;28;20040;-61
2022/03/14 06:33:21;;;;;;;10.43;3.88;;;;;;;8.69;71.25;101485.78;4195459;28;20541;-60
2022/03/14 06:35:24;;;;;;;8.18;3.00;;;;;;;8.66;71.05;101488.25;4201380;28;20099;-61
2022/03/14 06:37:27;;;;;;;8.23;3.67;;;;;;;8.68;71.48;101499.56;4195457;28;20033;-61
2022/03/14 06:39:30;;;;;;;9.90;4.22;;;;;;;8.63;71.08;101501.09;4192171;28;20045;-60
2022/03/14 06:41:38;;;;;;;11.90;5.15;;;;;;;8.65;70.81;101515.88;4194795;28;20494;-60
2022/03/14 06:43:41;;;;;;;6.70;3.80;;;;;;;8.73;70.98;101513.56;4201723;28;20406;-60
2022/03/14 06:45:46;;;;;;;7.95;4.07;;;;;;;8.84;70.85;101514.88;4197371;28;20091;-60
2022/03/14 06:47:49;;;;;;;10.75;3.80;;;;;;;8.91;71.21;101519.47;4182251;28;20054;-60
2022/03/14 06:49:51;;;;;;;8.73;3.42;;;;;;;8.88;70.27;101528.88;4193510;28;20049;-60
2022/03/14 06:51:54;;;;;;;10.30;3.35;;;;;;;8.98;70.28;101530.06;4196568;28;20040;-61
2022/03/14 06:53:57;;;;;;;7.47;2.70;;;;;;;8.95;69.85;101530.88;4198855;28;20047;-60
2022/03/14 06:55:59;;;;;;;6.05;2.45;;;;;;;8.81;70.00;101534.63;4185718;28;20088;-60
2022/03/14 06:58:03;;;;;;;7.95;2.72;;;;;;;8.82;69.87;101526.00;4191151;28;20039;-60
2022/03/14 07:00:07;;;;;;;8.10;2.75;;;;;;;8.89;70.28;101530.59;4202446;28;20094;-60
2022/03/14 07:02:11;;;;;;;7.80;3.00;;;;;;;8.97;70.24;101531.81;4193589;28;20040;-60
2022/03/14 07:04:15;;;;;;;5.78;2.97;;;;;;;8.87;69.86;101525.38;4166226;28;20158;-61
2022/03/14 07:06:18;;;;;;;6.72;2.78;;;;;;;8.90;69.67;101525.47;4199298;28;20106;-60
2022/03/14 07:08:22;;;;;;;9.40;2.55;;;;;;;8.96;70.01;101531.75;4199629;28;20036;-60
2022/03/14 07:10:24;;;;;;;8.45;3.72;;;;;;;8.98;69.61;101532.66;4199957;28;20048;-60
2022/03/14 07:12:27;;;;;;;8.55;3.70;;;;;;;9.02;69.89;101535.47;4192127;28;20079;-60
2022/03/14 07:14:30;;;;;;;10.75;4.38;;;;;;;9.09;69.45;101540.03;4186852;28;20096;-60
2022/03/14 07:16:33;;;;;;;11.23;3.97;;;;;;;9.07;69.39;101546.88;4202297;28;20048;-60
2022/03/14 07:18:37;;;;;;;15.93;5.80;;;;;;;9.14;69.41;101544.50;4190543;28;20071;-60
2022/03/14 07:20:40;;;;;;;14.73;6.07;;;;;;;9.06;68.96;101550.28;4194210;28;20094;-60
2022/03/14 07:22:53;;;;;;;15.10;5.85;;;;;;;9.07;68.87;101557.25;4200531;28;20037;-60
2022/03/14 07:24:56;;;;;;;12.20;4.32;;;;;;;9.18;68.24;101556.78;4196523;28;20458;-60
2022/03/14 07:26:58;;;;;;;8.07;3.92;;;;;;;9.34;68.61;101566.91;4186383;28;20465;-60
2022/03/14 07:29:02;;;;;;;9.50;3.90;;;;;;;9.41;68.31;101568.88;4194748;28;20449;-60
2022/03/14 07:31:05;;;;;;;11.10;3.72;;;;;;;9.51;68.33;101575.31;4179205;28;20048;-60
2022/03/14 07:33:08;;;;;;;9.38;3.95;;;;;;;9.50;68.65;101577.84;4174811;28;20076;-60
2022/03/14 07:35:13;;;;;;;7.70;3.03;;;;;;;9.53;68.28;101577.97;4195435;28;20120;-61
2022/03/14 07:37:15;;;;;;;11.02;4.10;;;;;;;9.52;68.66;101571.91;4195698;28;20050;-60
2022/03/14 07:39:19;;;;;;;10.27;4.45;;;;;;;9.44;67.20;101576.78;4193781;28;20358;-60
2022/03/14 07:41:22;;;;;;;10.80;3.50;;;;;;;9.48;67.43;101579.53;4182633;28;20063;-61
2022/03/14 07:43:24;;;;;;;7.88;2.83;;;;;;;9.43;67.38;101587.13;4182114;28;20072;-60
2022/03/14 07:45:27;;;;;;;13.57;3.45;;;;;;;9.56;67.95;101585.84;4199174;28;20079;-61
2022/03/14 07:47:30;;;;;;;10.90;4.78;;;;;;;9.73;68.04;101589.06;4187698;28;20118;-61
2022/03/14 07:49:32;;;;;;;9.70;2.97;;;;;;;9.70;67.31;101594.16;4166556;28;20487;-60
2022/03/14 07:51:36;;;;;;;10.48;2.90;;;;;;;9.75;67.61;101603.00;4183125;28;20046;-61
2022/03/14 07:53:39;;;;;;;7.50;2.97;;;;;;;9.82;67.38;101604.09;4166645;28;20487;-60
2022/03/14 07:55:44;;;;;;;10.05;3.50;;;;;;;9.71;67.05;101612.41;4175628;28;20124;-60
2022/03/14 07:57:47;;;;;;;9.35;3.13;;;;;;;9.72;67.23;101614.13;4177249;28;20056;-60
2022/03/14 07:59:51;;;;;;;11.13;4.22;;;;;;;9.63;66.97;101613.81;4182482;28;20045;-60
2022/03/14 08:01:54;;;;;;;12.63;4.15;;;;;;;9.52;66.27;101620.31;4152776;28;20176;-59
2022/03/14 08:03:57;;;;;;;11.85;3.53;;;;;;;9.58;66.41;101616.25;4168506;28;20057;-60
2022/03/14 08:06:00;;;;;;;9.50;3.92;;;;;;;9.61;65.87;101618.09;4181075;28;20123;-60
2022/03/14 08:08:05;;;;;;;12.20;3.03;;;;;;;9.65;65.06;101627.75;4164278;28;20105;-59
2022/03/14 08:10:09;;;;;;;9.00;3.17;;;;;;;9.66;65.46;101634.69;4165783;28;20447;-59
2022/03/14 08:12:13;;;;;;;16.27;4.13;;;;;;;9.67;65.30;101636.47;4176339;28;20033;-58
2022/03/14 08:14:16;;;;;;;10.90;3.10;;;;;;;9.57;64.56;101632.66;4179689;28;20041;-61
2022/03/14 08:16:19;;;;;;;10.68;3.90;;;;;;;9.45;65.04;101642.59;4182800;28;20037;-59
2022/03/14 08:18:23;;;;;;;17.65;3.95;;;;;;;9.42;65.07;101640.75;4181822;28;20038;-60
2022/03/14 08:20:27;;;;;;;16.63;3.42;;;;;;;9.44;64.47;101651.19;4165855;28;20517;-59
2022/03/14 08:22:30;;;;;;;16.75;4.18;;;;;;;9.39;65.04;101653.59;4182189;28;20124;-59
2022/03/14 08:24:34;;;;;;;12.55;3.00;;;;;;;9.50;65.30;101650.53;4190050;28;20095;-59
2022/03/14 08:26:38;;;;;;;16.58;3.45;;;;;;;9.56;64.91;101645.56;4187987;28;20052;-59
2022/03/14 08:28:42;;;;;;;16.27;4.22;;;;;;;9.55;64.37;101657.69;4181869;28;20063;-59
2022/03/14 08:30:47;;;;;;;16.40;4.78;;;;;;;9.53;64.24;101655.84;4181136;28;20407;-59
2022/03/14 08:32:52;;;;;;;20.48;5.90;;;;;;;9.74;64.46;101654.06;4181228;28;20037;-59
2022/03/14 08:34:56;;;;;;;15.02;3.67;;;;;;;9.81;64.11;101660.34;4180242;28;20037;-59
2022/03/14 08:36:59;;;;;;;11.57;3.20;;;;;;;9.99;64.61;101651.44;4184459;28;20107;-60
2022/03/14 08:39:02;;;;;;;10.18;3.00;;;;;;;10.03;63.38;101661.13;4191350;28;20037;-60
2022/03/14 08:41:06;;;;;;;12.55;2.85;;;;;;;10.06;63.64;101661.22;4189888;28;20075;-59
2022/03/14 08:43:10;;;;;;;12.32;3.42;;;;;;;9.99;63.14;101667.94;4157787;28;20042;-60
2022/03/14 08:45:14;;;;;;;17.60;3.50;;;;;;;9.96;62.90;101673.03;4173825;28;20036;-63
2022/03/14 08:47:16;;;;;;;11.37;2.90;;;;;;;9.99;63.20;101677.41;4181299;28;20046;-61
2022/03/14 08:49:19;;;;;;;10.35;2.92;;;;;;;10.10;62.89;101671.81;4181374;28;20732;-60
2022/03/14 08:51:22;;;;;;;9.52;3.38;;;;;;;10.19;62.59;101671.25;4178912;28;20522;-60
2022/03/14 08:53:24;;;;;;;6.22;2.42;;;;;;;10.23;61.64;101673.09;4184006;28;20051;-61
2022/03/14 08:55:27;;;;;;;4.50;2.00;;;;;;;10.17;61.54;101682.41;4180354;28;20052;-60
2022/03/14 08:57:32;;;;;;;8.95;2.15;;;;;;;10.07;61.96;101679.47;4159203;28;20103;-60
2022/03/14 08:59:35;;;;;;;10.10;2.88;;;;;;;9.99;61.85;101687.81;4181488;28;20041;-60
2022/03/14 09:01:38;;;;;;;9.93;2.60;;;;;;;10.05;61.83;101698.44;4157251;28;20050;-60
2022/03/14 09:03:42;;;;;;;12.25;3.45;;;;;;;10.08;61.43;101694.22;4163858;28;20099;-60
2022/03/14 09:05:46;;;;;;;10.55;2.70;;;;;;;10.11;60.95;101699.53;4165045;28;20377;-61
2022/03/14 09:07:49;;;;;;;5.68;2.22;;;;;;;10.18;60.10;101698.06;4184450;28;20040;-60
2022/03/14 09:09:52;;;;;;;8.50;2.53;;;;;;;10.19;59.97;101698.94;4180147;28;20045;-60
2022/03/14 09:11:55;;;;;;;10.18;2.45;;;;;;;10.36;60.23;101704.78;4177364;28;20041;-60
2022/03/14 09:13:59;;;;;;;7.55;2.28;;;;;;;10.36;59.38;101694.38;4167530;28;20049;-60
2022/03/14 09:16:02;;;;;;;8.13;2.15;;;;;;;10.48;59.22;101695.69;4180018;28;20036;-60
2022/03/14 09:18:04;;;;;;;9.07;1.98;;;;;;;10.45;58.23;101698.19;4192779;28;20048;-60
2022/03/14 09:20:08;;;;;;;7.72;2.42;;;;;;;10.63;59.41;101694.41;4176020;28;20080;-60
2022/03/14 09:22:11;;;;;;;11.15;2.38;;;;;;;10.67;58.31;101701.50;4182366;28;20448;-60
2022/03/14 09:24:14;;;;;;;12.18;2.80;;;;;;;10.81;58.45;101699.38;4173890;28;20593;-60
2022/03/14 09:26:16;;;;;;;6.47;2.65;;;;;;;10.99;58.01;101702.59;4187169;28;20040;-60
2022/03/14 09:28:20;;;;;;;8.77;2.13;;;;;;;11.09;57.22;101701.16;4189103;28;20449;-60
2022/03/14 09:30:25;;;;;;;10.50;2.35;;;;;;;10.96;57.27;101702.47;4164631;28;20041;-61
2022/03/14 09:32:27;;;;;;;10.63;2.38;;;;;;;10.87;58.51;101709.09;4172129;28;20257;-60
2022/03/14 09:34:31;;;;;;;7.13;2.00;;;;;;;10.84;57.95;101709.88;4168270;28;20567;-60
2022/03/14 09:36:33;;;;;;;5.82;1.52;;;;;;;10.75;57.79;101710.44;4166191;28;20057;-60